Share

Chanute, KS

Chanute Martin Johnson (KCNU) Elev 1001 ft | 37.67 °N, 95.48 °W | Change Station

Current weather conditions updated 19 minutes ago

Clear
Clear
46 °F
Feels Like 42 °F
N
7
Wind Variable Wind from SE
Sunrise 6:41 AM
Sunset 8:01 PM
Moon Waning Gibbous

Today is forecast to be Warmer than yesterday.

Pressure 30.15 in
Visibility 9.0 miles
Clouds Clear
Windchill 42 °F
Dew Point 40 °F
Humidity 79%
Rainfall 0.00 in
Snow Depth Not available.
UV 0 out of 16
Pollen 11.30 out of 12
Air Quality Not available.
Flu Activity No Activity
METAR KCNU 191152Z AUTO 14006KT 9SM CLR 08/04 A3016 RMK AO2 SLP210 T00780044 10100 20061 53009

More Conditions Fewer Conditions

Pressure 30.15 in
Visibility 9.0 miles
Clouds Clear
Windchill 42 °F
Dew Point 40 °F
Humidity 79%
Rainfall 0.00 in
Snow Depth Not available.
UV 0 out of 16
Pollen 11.30 out of 12
Air Quality Not available.
Flu Activity No Activity
METAR KCNU 191152Z AUTO 14006KT 9SM CLR 08/04 A3016 RMK AO2 SLP210 T00780044 10100 20061 53009

More Conditions Fewer Conditions

10-Day Weather Forecast

Almanac

Astronomy

Apr. 19, 2014 Rise Set
Actual Time 6:41 AM CDT 8:01 PM CDT
Civil Twilight 6:14 AM CDT 8:28 PM CDT
Nautical Twilight 5:41 AM CDT 9:01 PM CDT
Astronomical Twilight 5:07 AM CDT 9:35 PM CDT
Moon No Moon Rise 10:03 AM CDT
Length of Visible Light 14h 14m
Length of Day
13h 19m
Tomorrow will be 2m 15s longer.
Waning Gibbous, 80% of the Moon is Illuminated
Today
Waning Gibbous
Apr 22
Last Quarter
Apr 29
New
May 6
First Quarter
May 14
Full

Today's Extremes

State Highs State Lows

Community

  • Bleeding Hearts
    Bleeding Hearts
  • Sunset Silhouettes
    Sunset Silhouettes
  • FL sunset Perico Isle
    FL sunset Perico Isle
  • Cloudy spring view
    Cloudy spring view
  • Old barn
    Old barn

WunderPhotos

Upload Photos

1,702,700 photos uploaded!

Nearby

Snow Depth

Station Depth Elevation
No new snow has been reported.

Coastal Water Temperatures

Place Temperature
No Stations Reporting

Earthquake Activity

City Distance Mag. Time & Date
Perry, Oklahoma 136 miles 2.5 1:42 PM CDT
2014-04-14
Perry, Oklahoma 137 miles 2.6 1:20 PM CDT
2014-04-14
Edmond, Oklahoma 171 miles 2.5 8:10 AM CDT
2014-04-13
McCord, Oklahoma 121 miles 2.9 1:33 PM CDT
2014-04-12
Minimum magnitude displayed is 2.5.

Nearby Weather Stations

Station Location Temp. Windchill Dew Point Humidity Wind Precip. Elev Updated Type
MesoWest PARSON , Galesburg, KS 49 °F 49 °F - - North  at  - 0.00 in / hr 942 ft 5:20 AM CDT MADIS
MesoWest SYCAMR , Sycamore, KS 44 °F 44 °F - - North  at  - 0.00 in / hr 816 ft 5:35 AM CDT MADIS

Show More Stations Show Fewer Stations

What do you think?

We're not finished. Please let us know what you like, what you don't like, and what you are still missing.